»·PEaware :: N64754 KSMX-KBFL

N64754 :: KSMX-KBFL

FLIGHT INFORMATION

Flight Status: Arrived
Operator: Privately registered:
United States
More flights under this callsign
Pilot: Marc F. (15221)
Aircraft: CESSNA 172 SKYHAWK
(C172)
More flights by this aircraft type
Origin: KSMX Santa Maria Pub/Capt Hancock
United States
Destination: KBFL Meadows
United States
More flights between these airports :: More routes between these airports
Route:
File this flight plan on PilotEdge
Remarks:
Altitude:
(Current/Filed)
7,500ft
Speed:
(Current/Filed)
100kts
Departed: 28-May-17 10:41 AM
Arrived: 28-May-17 11:29 AM
Distance/Time
Traveled:
76nm/0:47
Distance/Time
To Go:
Arrived

Flight Plot

Page will automatically refresh every two minutes.


Map Options




Map Legend


Flown Route
Filed Route
Departure Airport
Arrival Airport
Navaid (VOR, NDB)
Fix

Horizontal Profiles

Position Reports

Time Latitude Longitude Heading Altitude Ground
Speed
28-May-17 10:37 34.903477 -120.454786 306 265ft 0kts
28-May-17 10:38 34.903477 -120.454786 306 265ft 0kts
28-May-17 10:39 34.901896 -120.454228 135 265ft 19kts
28-May-17 10:40 34.896302 -120.447544 136 265ft 31kts
28-May-17 10:41 34.893602 -120.445230 180 265ft 0kts
28-May-17 10:42 34.893268 -120.445285 198 265ft 14kts
28-May-17 10:43 34.904020 -120.458962 315 847ft 81kts
28-May-17 10:44 34.917446 -120.455621 111 1956ft 82kts
28-May-17 10:45 34.904932 -120.431916 117 3003ft 86kts
28-May-17 10:46 34.905697 -120.406043 56 3833ft 100kts
28-May-17 10:47 34.918005 -120.380170 59 4884ft 85kts
28-May-17 10:48 34.928671 -120.355281 61 5810ft 82kts
28-May-17 10:49 34.938678 -120.330868 62 6691ft 80kts
28-May-17 10:50 34.948274 -120.306991 64 7523ft 76kts
28-May-17 10:51 34.959942 -120.277474 64 7500ft 104kts
28-May-17 10:52 34.972581 -120.245477 64 7499ft 105kts
28-May-17 10:53 34.985316 -120.213215 64 7499ft 105kts
28-May-17 10:54 34.997957 -120.181160 64 7499ft 105kts
28-May-17 10:55 35.010645 -120.148966 64 7499ft 105kts
28-May-17 10:56 35.023312 -120.116797 64 7498ft 105kts
28-May-17 10:57 35.035865 -120.084873 64 7498ft 105kts
28-May-17 10:58 35.048516 -120.052661 64 7498ft 105kts
28-May-17 10:59 35.061180 -120.020394 64 7498ft 105kts
28-May-17 11:00 35.073767 -119.988284 64 7498ft 105kts
28-May-17 11:01 35.086330 -119.956198 64 7507ft 105kts
28-May-17 11:02 35.098929 -119.923983 64 7507ft 105kts
28-May-17 11:03 35.111346 -119.892332 64 7509ft 105kts
28-May-17 11:04 35.124152 -119.859984 65 7509ft 105kts
28-May-17 11:05 35.136828 -119.827645 65 7509ft 105kts
28-May-17 11:06 35.149494 -119.795208 65 7509ft 105kts
28-May-17 11:07 35.162136 -119.762751 65 7509ft 105kts
28-May-17 11:08 35.174716 -119.730411 65 7509ft 105kts
28-May-17 11:09 35.187312 -119.698003 65 7501ft 106kts
28-May-17 11:10 35.199924 -119.665516 65 7499ft 105kts
28-May-17 11:11 35.212478 -119.633138 65 7499ft 105kts
28-May-17 11:12 35.224950 -119.600961 65 7499ft 105kts
28-May-17 11:13 35.237143 -119.568217 68 7350ft 106kts
28-May-17 11:14 35.249737 -119.536837 64 6988ft 104kts
28-May-17 11:15 35.262318 -119.504467 64 6653ft 105kts
28-May-17 11:16 35.274765 -119.471850 63 6175ft 108kts
28-May-17 11:17 35.287806 -119.438402 63 5533ft 110kts
28-May-17 11:18 35.300890 -119.404486 63 4897ft 110kts
28-May-17 11:19 35.313934 -119.370608 63 4271ft 110kts
28-May-17 11:20 35.327010 -119.336606 63 3653ft 111kts
28-May-17 11:21 35.340119 -119.302474 64 3042ft 111kts
28-May-17 11:22 35.353037 -119.268812 64 2536ft 100kts
28-May-17 11:23 35.365502 -119.236283 64 2545ft 108kts
28-May-17 11:24 35.378281 -119.202900 64 2545ft 108kts
28-May-17 11:25 35.391057 -119.169491 64 2545ft 108kts
28-May-17 11:26 35.403821 -119.136083 64 2545ft 108kts
28-May-17 11:27 35.410031 -119.101263 111 2294ft 114kts
28-May-17 11:28 35.400913 -119.071945 98 1611ft 72kts
28-May-17 11:29 35.410342 -119.053478 43 918ft 65kts
28-May-17 11:30 35.424136 -119.044649 317 584ft 63kts
28-May-17 11:31 35.435395 -119.058000 329 510ft 31kts
28-May-17 11:32 35.436346 -119.057274 105 510ft 0kts
28-May-17 11:33 35.435551 -119.053768 42 510ft 10kts
28-May-17 11:34 35.435588 -119.053588 107 510ft 0kts
28-May-17 11:35 35.435588 -119.053588 107 510ft 0kts
28-May-17 11:36 35.435588 -119.053588 107 510ft 0kts
28-May-17 11:37 35.435588 -119.053588 107 510ft 0kts
28-May-17 11:38 35.435588 -119.053588 107 510ft 0kts
28-May-17 11:39 35.435588 -119.053588 107 510ft 0kts
28-May-17 11:40 35.435588 -119.053588 107 510ft 0kts
28-May-17 11:41 35.435588 -119.053588 107 510ft 0kts
28-May-17 11:42 35.435588 -119.053588 107 510ft 0kts
28-May-17 11:43 35.435588 -119.053588 107 510ft 0kts
28-May-17 11:44 35.435588 -119.053588 107 510ft 0kts
28-May-17 11:45 35.435588 -119.053588 107 510ft 0kts

Navigation Log

Ident Type
1. KSMX Airport
2. KBFL Airport